createdAt,value
2022-11-16T00:02:15.999Z,0.22
2022-11-16T00:04:44.640Z,3.70
2022-11-16T00:07:14.679Z,2.53
2022-11-16T00:09:43.156Z,2.00
2022-11-16T00:12:13.015Z,1.45
2022-11-16T00:14:43.692Z,3.33
2022-11-16T00:17:12.177Z,2.50
2022-11-16T00:19:40.522Z,1.73
2022-11-16T00:22:08.795Z,0.95
2022-11-16T00:24:38.743Z,0.80
2022-11-16T00:27:07.093Z,1.48
2022-11-16T00:29:38.231Z,0.70
2022-11-16T00:32:06.609Z,4.07
2022-11-16T00:34:34.932Z,1.85
2022-11-16T00:37:06.999Z,0.73
2022-11-16T00:39:39.835Z,4.78
2022-11-16T00:42:12.249Z,2.75
2022-11-16T00:44:40.447Z,7.13
2022-11-16T00:47:14.330Z,1.80
2022-11-16T00:49:45.053Z,3.38
2022-11-16T00:52:13.349Z,4.03
2022-11-16T00:54:42.963Z,7.57
2022-11-16T00:57:11.239Z,4.05
2022-11-16T00:59:39.516Z,3.03
2022-11-16T01:02:10.152Z,4.57
2022-11-16T01:04:38.375Z,2.53
2022-11-16T01:07:09.447Z,6.15
2022-11-16T01:09:37.958Z,2.63
2022-11-16T01:12:10.691Z,1.48
2022-11-16T01:14:39.265Z,3.67
2022-11-16T01:17:07.470Z,0.70
2022-11-16T01:19:38.691Z,2.05
2022-11-16T01:22:07.218Z,5.45
2022-11-16T01:24:35.345Z,1.55
2022-11-16T01:27:03.631Z,8.20
2022-11-16T01:29:33.641Z,4.13
2022-11-16T01:32:06.017Z,2.05
2022-11-16T01:34:34.648Z,5.68
2022-11-16T01:37:04.796Z,1.60
2022-11-16T01:39:33.097Z,1.17
2022-11-16T01:42:01.381Z,2.00
2022-11-16T01:45:04.329Z,0.32
2022-11-16T01:47:32.919Z,2.17
2022-11-16T01:50:07.989Z,1.38
2022-11-16T01:52:40.671Z,0.75
2022-11-16T01:55:09.463Z,2.25
2022-11-16T01:57:43.777Z,4.28
2022-11-16T02:00:15.862Z,3.15
2022-11-16T02:02:44.632Z,2.53
2022-11-16T02:05:22.857Z,1.95
2022-11-16T02:08:25.375Z,2.75
2022-11-16T02:11:11.786Z,3.97
2022-11-16T02:13:48.093Z,12.43
2022-11-16T02:16:26.243Z,2.08
2022-11-16T02:19:02.979Z,1.00
2022-11-16T02:21:40.778Z,0.47
2022-11-16T02:24:37.922Z,1.92
2022-11-16T02:27:44.864Z,1.35
2022-11-16T02:30:15.295Z,1.90
2022-11-16T02:32:49.621Z,1.48
2022-11-16T02:35:22.547Z,1.60
2022-11-16T02:37:55.929Z,1.38
2022-11-16T02:40:27.857Z,2.17
2022-11-16T02:43:01.554Z,0.10
2022-11-16T02:45:36.546Z,3.15
2022-11-16T02:48:10.917Z,0.55
2022-11-16T02:50:40.543Z,0.13
2022-11-16T02:53:08.854Z,0.10
2022-11-16T02:55:38.217Z,0.10
2022-11-16T02:58:08.531Z,2.83
2022-11-16T03:00:44.729Z,3.05
2022-11-16T03:03:28.300Z,0.85
2022-11-16T03:06:08.835Z,0.98
2022-11-16T03:08:41.024Z,0.35
2022-11-16T03:11:28.235Z,1.75
2022-11-16T03:13:59.207Z,2.88
2022-11-16T03:16:33.025Z,4.30
2022-11-16T03:19:25.057Z,4.13
2022-11-16T03:22:00.412Z,1.05
2022-11-16T03:24:28.785Z,2.63
2022-11-16T03:27:03.989Z,1.23
2022-11-16T03:29:34.562Z,0.52
2022-11-16T03:32:13.079Z,1.55
2022-11-16T03:34:45.099Z,4.18
2022-11-16T03:37:14.925Z,5.25
2022-11-16T03:39:44.117Z,0.52
2022-11-16T03:42:15.403Z,2.90
2022-11-16T03:44:46.554Z,1.00
2022-11-16T03:47:18.578Z,0.50
2022-11-16T03:49:47.810Z,4.22
2022-11-16T03:52:21.057Z,1.00
2022-11-16T03:54:51.801Z,0.40
2022-11-16T03:57:21.305Z,1.10
2022-11-16T03:59:51.984Z,3.13
2022-11-16T04:02:21.641Z,0.40
2022-11-16T04:05:07.373Z,5.47
2022-11-16T04:07:52.909Z,0.30
2022-11-16T04:10:38.394Z,0.30
2022-11-16T04:13:39.019Z,0.25
2022-11-16T04:16:35.865Z,1.38
2022-11-16T04:19:19.311Z,2.97
2022-11-16T04:22:09.124Z,0.50
2022-11-16T04:24:40.841Z,0.77
2022-11-16T04:27:29.661Z,4.15
2022-11-16T04:30:00.558Z,0.70
2022-11-16T04:32:45.975Z,2.67
2022-11-16T04:35:33.074Z,0.68
2022-11-16T04:38:01.270Z,1.20
2022-11-16T04:40:30.267Z,1.27
2022-11-16T04:43:00.471Z,0.98
2022-11-16T04:48:11.892Z,1.58
2022-11-16T04:50:42.215Z,0.85
2022-11-16T04:53:10.698Z,2.55
2022-11-16T04:55:39.023Z,0.52
2022-11-16T04:58:07.293Z,0.85
2022-11-16T05:00:35.539Z,1.58
2022-11-16T05:03:08.568Z,2.53
2022-11-16T05:05:38.578Z,1.08
2022-11-16T05:08:09.319Z,2.30
2022-11-16T05:10:38.010Z,3.70
2022-11-16T05:13:06.301Z,2.90
2022-11-16T05:15:34.411Z,1.00
2022-11-16T05:18:02.997Z,1.90
2022-11-16T05:20:48.518Z,1.27
2022-11-16T05:23:35.908Z,2.53
2022-11-16T05:26:04.133Z,0.65
2022-11-16T05:28:32.565Z,1.65
2022-11-16T05:31:00.938Z,0.75
2022-11-16T05:33:29.114Z,5.82
2022-11-16T05:35:57.287Z,0.88
2022-11-16T05:38:26.892Z,2.85
2022-11-16T05:40:55.073Z,0.90
2022-11-16T05:43:23.385Z,6.47
2022-11-16T05:45:51.582Z,2.50
2022-11-16T05:48:20.108Z,3.17
2022-11-16T05:50:48.694Z,1.02
2022-11-16T05:53:16.870Z,2.80
2022-11-16T05:55:46.552Z,3.15
2022-11-16T05:58:14.695Z,2.38
2022-11-16T06:00:43.134Z,0.82
2022-11-16T06:03:11.378Z,0.85
2022-11-16T06:05:40.845Z,1.63
2022-11-16T06:08:09.256Z,1.35
2022-11-16T06:10:38.040Z,8.52
2022-11-16T06:13:07.686Z,7.70
2022-11-16T06:15:38.566Z,13.00
2022-11-16T06:18:07.514Z,12.00
2022-11-16T06:20:36.259Z,12.27
2022-11-16T06:23:04.586Z,10.15
2022-11-16T06:25:32.845Z,7.53
2022-11-16T06:28:07.662Z,7.70
2022-11-16T06:30:38.436Z,6.30
2022-11-16T06:35:36.972Z,4.32
2022-11-16T06:38:05.217Z,5.88
2022-11-16T06:40:35.743Z,3.35
2022-11-16T06:43:04.033Z,3.92
2022-11-16T06:45:33.430Z,2.53
2022-11-16T06:48:06.117Z,4.60
2022-11-16T06:50:40.631Z,4.43
2022-11-16T06:53:29.390Z,2.88
2022-11-16T06:56:08.283Z,3.03
2022-11-16T06:58:37.325Z,2.60
2022-11-16T07:01:09.455Z,4.80
2022-11-16T07:03:39.494Z,2.67
2022-11-16T07:06:09.301Z,3.15
2022-11-16T07:08:37.709Z,3.50
2022-11-16T07:11:07.970Z,4.82
2022-11-16T07:13:37.255Z,7.80
2022-11-16T07:16:07.072Z,4.82
2022-11-16T07:18:36.573Z,10.77
2022-11-16T07:21:10.647Z,3.47
2022-11-16T07:23:39.031Z,6.85
2022-11-16T07:26:08.678Z,5.05
2022-11-16T07:28:37.890Z,5.45
2022-11-16T07:31:08.913Z,3.45
2022-11-16T07:33:37.272Z,5.35
2022-11-16T07:36:07.364Z,3.70
2022-11-16T07:38:37.648Z,7.68
2022-11-16T07:41:09.225Z,6.72
2022-11-16T07:43:37.440Z,6.70
2022-11-16T07:46:44.687Z,11.40
2022-11-16T07:48:54.812Z,4.55
2022-11-16T07:51:23.009Z,3.70
2022-11-16T07:53:55.746Z,7.28
2022-11-16T07:56:28.285Z,4.75
2022-11-16T07:58:56.429Z,4.45
2022-11-16T08:01:55.759Z,5.53
2022-11-16T08:04:24.182Z,7.38
2022-11-16T08:06:52.603Z,4.55
2022-11-16T08:09:22.346Z,5.95
2022-11-16T08:11:51.512Z,7.63
2022-11-16T08:14:22.238Z,8.10
2022-11-16T08:17:02.315Z,4.80
2022-11-16T08:19:36.675Z,6.07
2022-11-16T08:22:05.033Z,7.70
2022-11-16T08:24:34.515Z,6.70
2022-11-16T08:27:03.089Z,7.53
2022-11-16T08:29:31.277Z,8.35
2022-11-16T08:31:59.345Z,4.53
2022-11-16T08:34:27.462Z,4.97
2022-11-16T08:36:55.598Z,5.90
2022-11-16T08:39:24.107Z,6.35
2022-11-16T08:41:53.586Z,5.95
2022-11-16T08:44:21.624Z,8.13
2022-11-16T08:46:51.772Z,5.40
2022-11-16T08:51:47.792Z,4.45
2022-11-16T08:54:16.061Z,10.45
2022-11-16T08:56:44.082Z,9.70
2022-11-16T08:59:13.812Z,6.07
2022-11-16T09:01:42.091Z,5.22
2022-11-16T09:04:10.287Z,8.50
2022-11-16T09:06:38.317Z,8.85
2022-11-16T09:09:06.426Z,5.55
2022-11-16T09:12:09.416Z,6.63
2022-11-16T09:14:38.811Z,6.80
2022-11-16T09:17:06.954Z,23.10
2022-11-16T09:19:34.971Z,19.40
2022-11-16T09:22:03.107Z,15.35
2022-11-16T09:24:31.325Z,7.40
2022-11-16T09:27:01.467Z,6.97
2022-11-16T09:31:59.124Z,11.88
2022-11-16T09:34:28.743Z,9.82
2022-11-16T09:36:57.205Z,5.80
2022-11-16T09:39:31.095Z,5.57
2022-11-16T09:42:21.582Z,5.72
2022-11-16T09:45:04.651Z,6.20
2022-11-16T09:47:49.264Z,5.15
2022-11-16T09:50:35.461Z,6.13
2022-11-16T09:53:16.366Z,5.57
2022-11-16T09:55:50.553Z,9.77
2022-11-16T09:58:23.748Z,11.48
2022-11-16T10:00:58.387Z,6.50
2022-11-16T10:03:31.222Z,4.88
2022-11-16T10:06:06.992Z,6.22
2022-11-16T10:08:49.091Z,6.60
2022-11-16T10:11:44.949Z,10.18
2022-11-16T10:14:29.894Z,4.68
2022-11-16T11:07:33.878Z,6.22
2022-11-16T11:10:26.911Z,7.38
2022-11-16T11:20:34.053Z,7.43
2022-11-16T11:24:16.401Z,9.98
2022-11-16T12:14:51.832Z,2.30
2022-11-16T12:17:25.239Z,3.65
2022-11-16T12:20:12.715Z,4.93
2022-11-16T12:23:03.765Z,6.13
2022-11-16T12:25:37.136Z,3.53
2022-11-16T12:28:21.224Z,2.17
2022-11-16T12:31:10.250Z,3.42
2022-11-16T12:33:49.426Z,3.75
2022-11-16T12:36:30.262Z,2.88
2022-11-16T12:39:09.545Z,3.95
2022-11-16T12:42:03.726Z,7.33
2022-11-16T12:44:46.302Z,6.50
2022-11-16T12:47:29.153Z,3.95
2022-11-16T12:50:18.776Z,2.83
2022-11-16T12:53:09.312Z,0.65
2022-11-16T12:55:47.168Z,4.30
2022-11-16T12:58:28.143Z,3.03
2022-11-16T13:01:07.107Z,4.25
2022-11-16T13:03:42.855Z,4.03
2022-11-16T13:06:16.533Z,2.85
2022-11-16T13:08:55.655Z,3.35
2022-11-16T13:11:28.947Z,0.85
2022-11-16T13:14:05.022Z,4.80
2022-11-16T13:16:33.289Z,2.10
2022-11-16T13:19:07.030Z,2.70
2022-11-16T13:21:48.900Z,4.38
2022-11-16T13:24:34.077Z,3.70
2022-11-16T13:27:19.281Z,1.75
2022-11-16T13:33:14.936Z,2.27
2022-11-16T13:35:45.058Z,5.82
2022-11-16T13:40:42.403Z,4.88
2022-11-16T13:43:21.102Z,4.10
2022-11-16T13:45:57.131Z,5.80
2022-11-16T13:48:30.829Z,3.83
2022-11-16T13:51:03.118Z,5.68
2022-11-16T13:56:28.588Z,13.25
2022-11-16T13:58:58.880Z,6.90
2022-11-16T14:01:57.894Z,7.93
2022-11-16T14:04:55.079Z,4.75
2022-11-16T14:07:33.423Z,2.13
2022-11-16T15:21:02.939Z,13.15
2022-11-16T15:23:32.194Z,3.53
2022-11-16T15:26:02.866Z,5.75
2022-11-16T15:28:33.311Z,5.38
2022-11-16T15:31:04.555Z,8.98
2022-11-16T15:33:37.757Z,3.72
2022-11-16T15:36:29.983Z,6.97
2022-11-16T15:39:00.397Z,6.88
2022-11-16T15:41:29.853Z,15.68
2022-11-16T15:44:15.821Z,5.07
2022-11-16T15:46:49.164Z,12.35
2022-11-16T15:49:28.981Z,4.50
2022-11-16T15:52:01.938Z,9.52
2022-11-16T15:54:51.652Z,6.15
2022-11-16T15:57:21.573Z,6.97
2022-11-16T15:59:52.197Z,7.47
2022-11-16T16:02:23.325Z,8.43
2022-11-16T16:04:52.432Z,7.65
2022-11-16T16:07:40.447Z,11.80
2022-11-16T16:10:38.671Z,8.00
2022-11-16T16:13:27.100Z,9.00
2022-11-16T16:16:28.212Z,7.03
2022-11-16T16:19:02.504Z,8.52
2022-11-16T16:21:43.867Z,11.48
2022-11-16T16:24:42.563Z,4.50
2022-11-16T16:27:18.879Z,9.93
2022-11-16T16:29:48.636Z,9.63
2022-11-16T16:32:27.560Z,12.57
2022-11-16T16:34:56.789Z,29.65
2022-11-16T16:37:28.134Z,13.87
2022-11-16T16:39:58.117Z,11.13
2022-11-16T16:42:27.153Z,7.32
2022-11-16T16:45:02.196Z,7.60
2022-11-16T16:47:30.940Z,7.72
2022-11-16T16:49:59.940Z,9.15
2022-11-16T16:52:34.241Z,5.82
2022-11-16T16:55:04.958Z,13.80
2022-11-16T16:57:33.892Z,6.88
2022-11-16T17:00:04.616Z,7.30
2022-11-16T17:02:33.663Z,6.82
2022-11-16T17:05:02.253Z,11.10
2022-11-16T17:07:30.860Z,11.02
2022-11-16T17:10:00.133Z,15.60
2022-11-16T17:12:30.368Z,14.98
2022-11-16T17:14:59.448Z,15.00
2022-11-16T17:17:28.949Z,6.88
2022-11-16T17:19:58.980Z,5.95
2022-11-16T17:22:59.326Z,10.23
2022-11-16T17:30:25.467Z,7.25
2022-11-16T17:32:46.480Z,3.92
2022-11-16T17:35:15.233Z,7.70
2022-11-16T17:37:47.445Z,3.03
2022-11-16T17:40:16.582Z,3.72
2022-11-16T17:42:45.280Z,9.35
2022-11-16T17:48:38.462Z,15.73
2022-11-16T17:51:07.715Z,4.15
2022-11-16T17:53:37.579Z,8.80
2022-11-16T17:56:13.217Z,20.58
2022-11-16T17:58:43.458Z,16.27
2022-11-16T18:01:15.470Z,5.65
2022-11-16T18:03:47.737Z,6.00
2022-11-16T18:06:19.157Z,7.78
2022-11-16T18:08:51.204Z,3.53
2022-11-16T18:11:21.969Z,10.93
2022-11-16T18:13:54.103Z,6.88
2022-11-16T18:16:25.607Z,15.35
2022-11-16T18:18:58.665Z,8.93
2022-11-16T18:21:28.300Z,11.88
2022-11-16T18:23:56.851Z,16.75
2022-11-16T18:26:25.672Z,13.68
2022-11-16T18:28:54.617Z,19.13
2022-11-16T18:31:25.953Z,18.55
2022-11-16T18:33:54.192Z,20.77
2022-11-16T18:36:25.075Z,32.63
2022-11-16T18:38:53.254Z,11.52
2022-11-16T18:41:24.197Z,29.02
2022-11-16T18:43:54.330Z,32.22
2022-11-16T18:48:57.655Z,26.70
2022-11-16T18:51:27.454Z,23.02
2022-11-16T18:53:56.481Z,46.10
2022-11-16T18:56:25.365Z,32.13
2022-11-16T18:58:54.042Z,21.00
2022-11-16T19:01:26.049Z,17.52
2022-11-16T19:03:55.835Z,29.00
2022-11-16T19:06:25.336Z,19.77
2022-11-16T19:08:59.452Z,33.70
2022-11-16T19:11:29.629Z,19.70
2022-11-16T19:14:00.879Z,31.63
2022-11-16T19:16:32.364Z,20.25
2022-11-16T19:19:01.443Z,21.08
2022-11-16T19:21:31.076Z,20.67
2022-11-16T19:24:00.071Z,19.70
2022-11-16T19:26:29.481Z,21.75
2022-11-16T19:28:58.131Z,26.25
2022-11-16T19:31:33.155Z,30.85
2022-11-16T19:34:06.377Z,32.55
2022-11-16T19:36:39.960Z,26.88
2022-11-16T19:39:09.032Z,21.75
2022-11-16T19:41:37.535Z,27.70
2022-11-16T19:44:06.038Z,23.20
2022-11-16T19:46:36.128Z,29.60
2022-11-16T19:49:08.851Z,20.33
2022-11-16T19:51:37.942Z,25.98
2022-11-16T19:54:09.822Z,20.73
2022-11-16T19:56:38.667Z,26.73
2022-11-16T19:59:07.409Z,29.63
2022-11-16T20:01:36.545Z,32.60
2022-11-16T20:04:09.407Z,23.20
2022-11-16T20:06:43.954Z,29.50
2022-11-16T20:09:13.371Z,32.38
2022-11-16T20:11:43.257Z,23.40
2022-11-16T20:14:14.253Z,37.42
2022-11-16T20:16:44.446Z,31.92
2022-11-16T20:24:15.015Z,15.43
2022-11-16T20:26:45.240Z,14.60
2022-11-16T20:29:14.907Z,17.75
2022-11-16T20:31:45.516Z,15.90
2022-11-16T20:34:16.784Z,19.73
2022-11-16T20:36:46.682Z,13.23
2022-11-16T20:39:17.785Z,14.90
2022-11-16T20:41:46.532Z,14.20
2022-11-16T20:44:18.583Z,19.38
2022-11-16T20:46:49.072Z,12.90
2022-11-16T20:49:18.990Z,18.77
2022-11-16T20:51:48.511Z,18.05
2022-11-16T20:54:16.909Z,13.43
2022-11-16T20:56:45.775Z,13.88
2022-11-16T20:59:15.156Z,17.83
2022-11-16T21:01:47.855Z,18.48
2022-11-16T21:04:20.836Z,50.53
2022-11-16T21:06:51.690Z,34.30
2022-11-16T21:09:28.209Z,44.15
2022-11-16T21:12:13.960Z,51.83
2022-11-16T21:14:43.143Z,21.83
2022-11-16T21:17:11.940Z,20.40
2022-11-16T21:19:54.251Z,12.43
2022-11-16T21:22:32.735Z,10.23
2022-11-16T21:25:01.598Z,7.50
2022-11-16T21:27:29.962Z,4.15
2022-11-16T21:29:58.630Z,8.80
2022-11-16T21:32:26.968Z,11.90
2022-11-16T21:34:56.553Z,7.30
2022-11-16T21:37:27.134Z,11.10
2022-11-16T21:39:58.103Z,6.82
2022-11-16T21:42:26.518Z,7.88
2022-11-16T21:44:55.330Z,4.45
2022-11-16T21:47:23.517Z,5.55
2022-11-16T21:50:24.891Z,5.10
2022-11-16T21:52:43.197Z,6.03
2022-11-16T21:55:12.016Z,5.78
2022-11-16T21:57:40.206Z,5.43
2022-11-16T22:00:12.338Z,5.25
2022-11-16T22:02:40.498Z,10.00
2022-11-16T22:05:27.576Z,7.28
2022-11-16T22:07:57.854Z,5.20
2022-11-16T22:10:26.095Z,6.43
2022-11-16T22:12:54.514Z,9.13
2022-11-16T22:15:23.003Z,6.75
2022-11-16T22:17:51.287Z,5.28
2022-11-16T22:20:24.146Z,6.90
2022-11-16T22:22:53.732Z,13.02
2022-11-16T22:25:24.133Z,24.67
2022-11-16T22:28:18.955Z,15.15
2022-11-16T22:30:40.871Z,17.08
2022-11-16T22:33:10.167Z,10.77
2022-11-16T22:35:38.537Z,12.18
2022-11-16T22:38:06.891Z,8.25
2022-11-16T22:40:36.614Z,7.43
2022-11-16T22:43:05.559Z,5.97
2022-11-16T22:45:34.265Z,6.15
2022-11-16T22:48:02.545Z,5.35
2022-11-16T22:50:30.963Z,5.97
2022-11-16T22:53:00.395Z,5.45
2022-11-16T22:55:28.720Z,4.63
2022-11-16T22:57:58.419Z,6.95
2022-11-16T23:00:26.868Z,9.20
2022-11-16T23:02:55.272Z,7.53
2022-11-16T23:05:24.183Z,6.20
2022-11-16T23:07:52.640Z,4.05
2022-11-16T23:10:21.329Z,4.90
2022-11-16T23:13:07.013Z,3.22
2022-11-16T23:15:51.988Z,3.88
2022-11-16T23:18:20.964Z,2.97
2022-11-16T23:21:06.483Z,5.63
2022-11-16T23:23:52.196Z,5.60
2022-11-16T23:26:41.731Z,3.22
2022-11-16T23:29:12.162Z,3.65
2022-11-16T23:31:41.963Z,4.38
2022-11-16T23:34:10.454Z,2.10
2022-11-16T23:36:38.938Z,5.40
2022-11-16T23:39:07.514Z,3.70
2022-11-16T23:41:53.266Z,3.05
2022-11-16T23:44:21.823Z,4.75
2022-11-16T23:46:51.490Z,3.28
2022-11-16T23:49:19.709Z,2.67
2022-11-16T23:51:48.157Z,4.00
2022-11-16T23:54:16.686Z,3.20
2022-11-16T23:56:45.120Z,2.33
2022-11-16T23:59:14.733Z,5.15
